Weather History for Mojave, CA

Change the Weather History Date:

Thursday, October 4, 2012

  Actual Average Record
Temperature  
Mean Temperature 77 °F -  
Max Temperature 86 °F 84 °F 100 °F (1980)
Min Temperature 68 °F 54 °F 36 °F (1969)
Cooling Degree Days 12    
Growing Degree Days 27 (Base 50)    
Moisture  
Dew Point 35 °F    
Average Humidity 22    
Maximum Humidity 30    
Minimum Humidity 17    
Precipitation  
Precipitation 0.00 in - - ()
Sea Level Pressure  
Sea Level Pressure 30.05 in    
Wind  
Wind Speed 19 mph (West)    
Max Wind Speed 34 mph    
Max Gust Speed 44 mph    
Visibility 10 miles    
Events      
Averages and records for this station are not official NWS values.
T = Trace of Precipitation, MM = Missing Value Source: NWS Daily Summary

Daily Weather History Graph

Daily Weather History Graph

Search for Another Location

Airport:

Trip Planner

Search our weather history database for the weather conditions in past years. The results will help you decide how hot, cold, wet, or windy it might be!

Date:

Astronomy

Oct. 04, 2012 Rise Set
Actual Time 6:50 AM PDT 6:31 PM PDT
Civil Twilight 6:24 AM PDT 6:56 PM PDT
Nautical Twilight 5:55 AM PDT 7:26 PM PDT
Astronomical Twilight 5:26 AM PDT 7:55 PM PDT
Moon 9:21 PM PDT (10/4) 11:01 AM PDT (10/4)
Length of Visible Light 12h 31m
Length of Day
11h 41m
Waning Gibbous, 81% of the Moon is Illuminated
Oct 4
Waning Gibbous
Oct 8
Last Quarter
Oct 15
New
Oct 21
First Quarter
Oct 29
Full

Hourly Weather History & Observations

Time (PDT) Temp. Dew Point Humidity Pressure Visibility Wind Dir Wind Speed Gust Speed Precip Events Conditions
12:15 AM 73.4 °F 35.6 °F 25% 30.04 in 10.0 mi WSW 16.1 mph 24.2 mph N/A   Clear
12:35 AM 73.4 °F 35.6 °F 25% 30.04 in 10.0 mi WSW 20.7 mph 24.2 mph N/A   Clear
12:55 AM 73.4 °F 35.6 °F 25% 30.04 in 10.0 mi SW 20.7 mph 25.3 mph N/A   Clear
1:15 AM 73.4 °F 33.8 °F 23% 30.04 in 10.0 mi WSW 19.6 mph 28.8 mph N/A   Clear
1:35 AM 73.4 °F 33.8 °F 23% 30.05 in 10.0 mi WSW 16.1 mph 28.8 mph N/A   Clear
1:55 AM 73.4 °F 33.8 °F 23% 30.05 in 10.0 mi SW 13.8 mph 26.5 mph N/A   Clear
2:15 AM 71.6 °F 33.8 °F 25% 30.05 in 10.0 mi WSW 10.4 mph 18.4 mph N/A   Clear
2:35 AM 71.6 °F 33.8 °F 25% 30.04 in 10.0 mi SW 12.7 mph - N/A   Clear
2:55 AM 71.6 °F 33.8 °F 25% 30.04 in 10.0 mi SW 12.7 mph - N/A   Clear
3:15 AM 71.6 °F 35.6 °F 27% 30.04 in 10.0 mi SSW 10.4 mph - N/A   Clear
3:35 AM 68.0 °F 35.6 °F 30% 30.04 in 10.0 mi SW 10.4 mph - N/A   Clear
3:55 AM 69.8 °F 35.6 °F 28% 30.03 in 10.0 mi WSW 11.5 mph - N/A   Clear
4:15 AM 69.8 °F 35.6 °F 28% 30.03 in 10.0 mi West 16.1 mph - N/A   Clear
4:35 AM 71.6 °F 35.6 °F 27% 30.03 in 10.0 mi West 20.7 mph - N/A   Clear
4:55 AM 71.6 °F 35.6 °F 27% 30.02 in 10.0 mi West 25.3 mph - N/A   Clear
5:15 AM 71.6 °F 35.6 °F 27% 30.03 in 10.0 mi West 23.0 mph 28.8 mph N/A   Clear
5:35 AM 69.8 °F 35.6 °F 28% 30.03 in 10.0 mi West 23.0 mph 28.8 mph N/A   Clear
5:55 AM 71.6 °F 35.6 °F 27% 30.03 in 10.0 mi West 26.5 mph 31.1 mph N/A   Clear
6:15 AM 71.6 °F 35.6 °F 27% 30.04 in 10.0 mi WSW 21.9 mph - N/A   Clear
6:35 AM 69.8 °F 35.6 °F 28% 30.05 in 10.0 mi WSW 25.3 mph 28.8 mph N/A   Clear
6:55 AM 69.8 °F 35.6 °F 28% 30.05 in 10.0 mi WSW 23.0 mph - N/A   Clear
7:15 AM 71.6 °F 32.0 °F 23% 30.05 in 10.0 mi West 20.7 mph - N/A   Clear
7:55 AM 73.4 °F 33.8 °F 23% 30.06 in 10.0 mi West 23.0 mph - N/A   Clear
8:15 AM 73.4 °F 33.8 °F 23% 30.06 in 10.0 mi West 24.2 mph 27.6 mph N/A   Clear
8:35 AM 75.2 °F 35.6 °F 24% 30.07 in 10.0 mi WSW 19.6 mph 26.5 mph N/A   Clear
8:55 AM 77.0 °F 35.6 °F 22% 30.07 in 10.0 mi West 16.1 mph 25.3 mph N/A   Clear
9:15 AM 78.8 °F 35.6 °F 21% 30.08 in 10.0 mi WSW 19.6 mph 26.5 mph N/A   Clear
9:35 AM 80.6 °F 37.4 °F 21% 30.08 in 10.0 mi WSW 20.7 mph 24.2 mph N/A   Clear
9:55 AM 82.4 °F 37.4 °F 20% 30.09 in 10.0 mi West 20.7 mph - N/A   Clear
10:15 AM 80.6 °F 37.4 °F 21% 30.09 in 10.0 mi West 19.6 mph - N/A   Clear
10:35 AM 82.4 °F 37.4 °F 20% 30.09 in 10.0 mi West 19.6 mph 25.3 mph N/A   Clear
10:55 AM 82.4 °F 37.4 °F 20% 30.09 in 10.0 mi West 19.6 mph 27.6 mph N/A   Clear
11:15 AM 84.2 °F 37.4 °F 19% 30.09 in 10.0 mi West 16.1 mph 26.5 mph N/A   Clear
11:35 AM 86.0 °F 35.6 °F 17% 30.09 in 10.0 mi West 18.4 mph 24.2 mph N/A   Clear
11:55 AM 86.0 °F 35.6 °F 17% 30.08 in 10.0 mi West 17.3 mph 25.3 mph N/A   Clear
12:15 PM 86.0 °F 35.6 °F 17% 30.08 in 10.0 mi West 16.1 mph 28.8 mph N/A   Clear
12:35 PM 86.0 °F 35.6 °F 17% 30.08 in 10.0 mi WNW 16.1 mph 27.6 mph N/A   Clear
12:55 PM 86.0 °F 35.6 °F 17% 30.07 in 10.0 mi WNW 12.7 mph 27.6 mph N/A   Clear
1:15 PM 86.0 °F 35.6 °F 17% 30.06 in 10.0 mi WNW 25.3 mph 32.2 mph N/A   Clear
1:35 PM 84.2 °F 35.6 °F 18% 30.05 in 10.0 mi WNW 17.3 mph 29.9 mph N/A   Clear
1:55 PM 86.0 °F 35.6 °F 17% 30.05 in 10.0 mi NW 23.0 mph 31.1 mph N/A   Clear
2:15 PM 86.0 °F 35.6 °F 17% 30.05 in 10.0 mi WNW 21.9 mph 38.0 mph N/A   Clear
2:25 PM 86.0 °F 35.6 °F 17% 30.04 in 10.0 mi NW 19.6 mph 28.8 mph N/A   Clear
2:55 PM 86.0 °F 35.6 °F 17% 30.03 in 10.0 mi WNW 25.3 mph 29.9 mph N/A   Clear
3:15 PM 86.0 °F 35.6 °F 17% 30.04 in 10.0 mi NW 25.3 mph 36.8 mph N/A   Clear
3:30 PM 84.2 °F 37.4 °F 19% 30.03 in 10.0 mi WNW 27.6 mph 33.4 mph N/A   Clear
3:55 PM 84.2 °F 35.6 °F 18% 30.03 in 10.0 mi WNW 20.7 mph 34.5 mph N/A   Clear
4:15 PM 84.2 °F 35.6 °F 18% 30.02 in 10.0 mi WNW 25.3 mph 34.5 mph N/A   Clear
4:35 PM 84.2 °F 35.6 °F 18% 30.03 in 10.0 mi WNW 21.9 mph 28.8 mph N/A   Clear
4:55 PM 82.4 °F 35.6 °F 19% 30.02 in 10.0 mi WNW 28.8 mph 35.7 mph N/A   Clear
5:15 PM 80.6 °F 35.6 °F 20% 30.03 in 10.0 mi WNW 28.8 mph 35.7 mph N/A   Clear
5:35 PM 80.6 °F 33.8 °F 18% 30.03 in 10.0 mi WNW 17.3 mph 27.6 mph N/A   Clear
5:55 PM 78.8 °F 32.0 °F 18% 30.03 in 10.0 mi West 20.7 mph 28.8 mph N/A   Clear
6:15 PM 77.0 °F 32.0 °F 19% 30.03 in 10.0 mi West 19.6 mph 32.2 mph N/A   Clear
6:35 PM 77.0 °F 33.8 °F 21% 30.04 in 10.0 mi West 21.9 mph 35.7 mph N/A   Clear
7:15 PM 75.2 °F 33.8 °F 22% 30.05 in 10.0 mi WSW 11.5 mph 26.5 mph N/A   Clear
7:35 PM 75.2 °F 32.0 °F 21% 30.04 in 10.0 mi West 23.0 mph 31.1 mph N/A   Clear
7:55 PM 75.2 °F 32.0 °F 21% 30.05 in 10.0 mi West 17.3 mph 25.3 mph N/A   Clear
8:15 PM 73.4 °F 33.8 °F 23% 30.05 in 10.0 mi West 20.7 mph 31.1 mph N/A   Clear
8:35 PM 73.4 °F 33.8 °F 23% 30.06 in 10.0 mi WSW 19.6 mph 29.9 mph N/A   Clear
8:55 PM 73.4 °F 33.8 °F 23% 30.05 in 10.0 mi West 21.9 mph 31.1 mph N/A   Clear
9:15 PM 73.4 °F 32.0 °F 22% 30.06 in 10.0 mi West 20.7 mph 25.3 mph N/A   Clear
9:35 PM 73.4 °F 32.0 °F 22% 30.06 in 10.0 mi West 18.4 mph 28.8 mph N/A   Clear
9:55 PM 73.4 °F 32.0 °F 22% 30.06 in 10.0 mi West 20.7 mph 26.5 mph N/A   Clear
10:10 PM 73.4 °F 33.8 °F 23% 30.06 in 10.0 mi WNW 20.7 mph 28.8 mph N/A   Clear
10:35 PM 73.4 °F 35.6 °F 25% 30.06 in 10.0 mi NW 23.0 mph 39.1 mph N/A   Clear
10:55 PM 71.6 °F 35.6 °F 27% 30.05 in 10.0 mi WNW 34.5 mph 43.7 mph N/A   Clear
11:15 PM 73.4 °F 35.6 °F 25% 30.05 in 10.0 mi WNW 25.3 mph 34.5 mph N/A   Clear
11:35 PM 71.6 °F 37.4 °F 29% 30.05 in 10.0 mi WNW 26.5 mph 40.3 mph N/A   Clear
11:55 PM 71.6 °F 35.6 °F 27% 30.04 in 10.0 mi NW 25.3 mph 43.7 mph N/A   Clear